Thomas, South Dakota
Current Conditions -  °F | °C
As of 9:12 PM on Tuesday 25 Nov 2014 (Local Time) from KATY Reporting Station
Light Snow Light Snow  
Wind Chill: 22°   Ceiling: 2500
Heat Index: 30°   Visibility: 2.5mi
Dew Point: 24°   Wind: 8mph
Humidity: 79%   Direction: 120°ESE
Pressure: 29.8"   Gusts: NA
Location:  44.6748°N, 97.2476°W
Report Text: KATY 260312Z AUTO 12007KT 2 1/2SM -SN BKN025 BKN034 OVC041 M01/M04 A2980 RMK AO2 SNB0258 P0000 T10111044
Loading
Personal Weather Stations






























Interactive Weather Map New forecast layout! Learn more

10-Day Weather Forecast

Advertisements
Track Severe Weather on mobile